sensor_id;sensor_type;location;lat;lon;timestamp;pressure;altitude;pressure_sealevel;temperature;humidity
62978;BME280;49073;42.352;23.808;2023-03-18T00:00:44;95077.81;;;-1.18;74.54
62978;BME280;49073;42.352;23.808;2023-03-18T00:03:46;95084.94;;;-1.29;75.88
62978;BME280;49073;42.352;23.808;2023-03-18T00:06:47;95076.31;;;-1.29;75.00
62978;BME280;49073;42.352;23.808;2023-03-18T00:09:48;95079.78;;;-1.60;76.17
62978;BME280;49073;42.352;23.808;2023-03-18T00:12:49;95066.19;;;-1.52;76.37
62978;BME280;49073;42.352;23.808;2023-03-18T00:15:51;95084.22;;;-1.45;75.79
62978;BME280;49073;42.352;23.808;2023-03-18T00:18:52;95081.34;;;-1.59;76.27
62978;BME280;49073;42.352;23.808;2023-03-18T00:21:53;95064.66;;;-1.68;76.11
62978;BME280;49073;42.352;23.808;2023-03-18T00:24:53;95073.56;;;-1.74;76.81
62978;BME280;49073;42.352;23.808;2023-03-18T00:27:54;95064.94;;;-1.80;77.40
62978;BME280;49073;42.352;23.808;2023-03-18T00:31:00;95057.91;;;-1.80;77.79
62978;BME280;49073;42.352;23.808;2023-03-18T00:34:01;95056.56;;;-1.77;78.29
62978;BME280;49073;42.352;23.808;2023-03-18T00:37:02;95061.78;;;-1.67;78.28
62978;BME280;49073;42.352;23.808;2023-03-18T00:40:05;95060.97;;;-1.57;77.64
62978;BME280;49073;42.352;23.808;2023-03-18T00:43:07;95058.59;;;-1.48;77.32
62978;BME280;49073;42.352;23.808;2023-03-18T00:46:08;95055.44;;;-1.40;76.15
62978;BME280;49073;42.352;23.808;2023-03-18T00:49:09;95051.53;;;-1.48;75.41
62978;BME280;49073;42.352;23.808;2023-03-18T00:52:10;95049.22;;;-1.59;75.79
62978;BME280;49073;42.352;23.808;2023-03-18T00:55:11;95044.78;;;-1.64;76.09
62978;BME280;49073;42.352;23.808;2023-03-18T00:58:11;95039.09;;;-1.82;77.26
62978;BME280;49073;42.352;23.808;2023-03-18T01:01:12;95031.25;;;-1.82;77.67
62978;BME280;49073;42.352;23.808;2023-03-18T01:04:14;95041.44;;;-1.85;77.08
62978;BME280;49073;42.352;23.808;2023-03-18T01:07:14;95031.00;;;-1.91;77.12
62978;BME280;49073;42.352;23.808;2023-03-18T01:10:15;95035.44;;;-1.86;78.14
62978;BME280;49073;42.352;23.808;2023-03-18T01:13:16;95035.16;;;-1.84;77.59
62978;BME280;49073;42.352;23.808;2023-03-18T01:16:17;95022.63;;;-1.72;77.55
62978;BME280;49073;42.352;23.808;2023-03-18T01:19:18;95028.13;;;-1.79;76.98
62978;BME280;49073;42.352;23.808;2023-03-18T01:22:20;95021.34;;;-1.85;77.93
62978;BME280;49073;42.352;23.808;2023-03-18T01:25:21;95024.72;;;-1.74;77.60
62978;BME280;49073;42.352;23.808;2023-03-18T01:28:22;95019.47;;;-1.69;76.59
62978;BME280;49073;42.352;23.808;2023-03-18T01:31:23;95019.25;;;-1.83;77.72
62978;BME280;49073;42.352;23.808;2023-03-18T01:34:24;95013.53;;;-1.90;78.03
62978;BME280;49073;42.352;23.808;2023-03-18T01:37:25;95017.41;;;-1.82;78.26
62978;BME280;49073;42.352;23.808;2023-03-18T01:40:26;95014.22;;;-1.64;77.38
62978;BME280;49073;42.352;23.808;2023-03-18T01:43:30;95020.53;;;-1.70;77.69
62978;BME280;49073;42.352;23.808;2023-03-18T01:46:38;95014.00;;;-1.78;78.59
62978;BME280;49073;42.352;23.808;2023-03-18T01:49:48;95014.78;;;-1.67;78.50
62978;BME280;49073;42.352;23.808;2023-03-18T01:52:54;95006.41;;;-1.64;78.07
62978;BME280;49073;42.352;23.808;2023-03-18T01:55:56;95009.00;;;-1.64;78.23
62978;BME280;49073;42.352;23.808;2023-03-18T01:58:59;95004.88;;;-1.75;78.29
62978;BME280;49073;42.352;23.808;2023-03-18T02:02:09;94999.84;;;-1.66;78.06
62978;BME280;49073;42.352;23.808;2023-03-18T02:05:11;95007.69;;;-1.66;76.83
62978;BME280;49073;42.352;23.808;2023-03-18T02:08:13;94993.38;;;-1.74;76.71
62978;BME280;49073;42.352;23.808;2023-03-18T02:11:13;94997.88;;;-1.95;76.31
62978;BME280;49073;42.352;23.808;2023-03-18T02:14:17;94990.56;;;-1.98;76.44
62978;BME280;49073;42.352;23.808;2023-03-18T02:17:22;94986.69;;;-2.22;76.91
62978;BME280;49073;42.352;23.808;2023-03-18T02:27:02;94991.91;;;-2.27;76.87
62978;BME280;49073;42.352;23.808;2023-03-18T02:30:12;94995.31;;;-2.31;77.95
62978;BME280;49073;42.352;23.808;2023-03-18T02:33:15;94992.97;;;-2.28;77.95
62978;BME280;49073;42.352;23.808;2023-03-18T02:36:19;94989.03;;;-2.36;77.78
62978;BME280;49073;42.352;23.808;2023-03-18T02:39:21;94995.06;;;-2.35;78.37
62978;BME280;49073;42.352;23.808;2023-03-18T02:42:27;94994.53;;;-2.27;78.04
62978;BME280;49073;42.352;23.808;2023-03-18T02:45:44;94996.84;;;-2.25;77.58
62978;BME280;49073;42.352;23.808;2023-03-18T02:48:48;94995.56;;;-2.23;77.06
62978;BME280;49073;42.352;23.808;2023-03-18T02:51:51;94996.59;;;-2.24;76.68
62978;BME280;49073;42.352;23.808;2023-03-18T02:54:52;94991.38;;;-2.24;76.75
62978;BME280;49073;42.352;23.808;2023-03-18T02:57:57;94992.97;;;-2.28;76.46
62978;BME280;49073;42.352;23.808;2023-03-18T03:00:58;95000.53;;;-2.42;76.57
62978;BME280;49073;42.352;23.808;2023-03-18T03:04:00;94996.88;;;-2.41;76.82
62978;BME280;49073;42.352;23.808;2023-03-18T03:07:00;94999.75;;;-2.42;76.06
62978;BME280;49073;42.352;23.808;2023-03-18T03:10:02;95000.25;;;-2.45;77.09
62978;BME280;49073;42.352;23.808;2023-03-18T03:13:03;94999.50;;;-2.51;78.19
62978;BME280;49073;42.352;23.808;2023-03-18T03:16:06;94997.94;;;-2.42;77.96
62978;BME280;49073;42.352;23.808;2023-03-18T03:19:07;94996.34;;;-2.32;77.45
62978;BME280;49073;42.352;23.808;2023-03-18T03:22:07;94994.00;;;-2.34;77.29
62978;BME280;49073;42.352;23.808;2023-03-18T03:25:10;94991.66;;;-2.46;77.27
62978;BME280;49073;42.352;23.808;2023-03-18T03:28:12;94997.94;;;-2.47;76.65
62978;BME280;49073;42.352;23.808;2023-03-18T03:31:13;94995.56;;;-2.49;77.10
62978;BME280;49073;42.352;23.808;2023-03-18T03:34:14;95003.91;;;-2.62;76.72
62978;BME280;49073;42.352;23.808;2023-03-18T03:37:15;94997.41;;;-2.65;77.74
62978;BME280;49073;42.352;23.808;2023-03-18T03:40:17;95001.31;;;-2.78;76.68
62978;BME280;49073;42.352;23.808;2023-03-18T03:43:19;95002.88;;;-2.82;77.30
62978;BME280;49073;42.352;23.808;2023-03-18T03:46:21;94997.91;;;-2.94;77.54
62978;BME280;49073;42.352;23.808;2023-03-18T03:49:23;95010.69;;;-2.92;78.42
62978;BME280;49073;42.352;23.808;2023-03-18T03:52:24;95003.88;;;-2.98;78.29
62978;BME280;49073;42.352;23.808;2023-03-18T03:55:25;95004.38;;;-3.07;79.29
62978;BME280;49073;42.352;23.808;2023-03-18T03:58:26;95000.50;;;-2.94;78.87
62978;BME280;49073;42.352;23.808;2023-03-18T04:01:27;95009.38;;;-2.95;79.30
62978;BME280;49073;42.352;23.808;2023-03-18T04:04:28;95006.00;;;-2.85;79.77
62978;BME280;49073;42.352;23.808;2023-03-18T04:07:29;95011.22;;;-2.64;78.94
62978;BME280;49073;42.352;23.808;2023-03-18T04:10:29;95009.66;;;-2.70;78.40
62978;BME280;49073;42.352;23.808;2023-03-18T04:13:31;95017.72;;;-2.72;76.82
62978;BME280;49073;42.352;23.808;2023-03-18T04:16:32;95014.88;;;-2.75;76.79
62978;BME280;49073;42.352;23.808;2023-03-18T04:19:33;95021.88;;;-3.02;76.68
62978;BME280;49073;42.352;23.808;2023-03-18T04:22:33;95033.59;;;-3.04;77.40
62978;BME280;49073;42.352;23.808;2023-03-18T04:25:34;95031.50;;;-3.08;77.54
62978;BME280;49073;42.352;23.808;2023-03-18T04:28:35;95033.06;;;-3.12;77.62
62978;BME280;49073;42.352;23.808;2023-03-18T04:31:36;95037.22;;;-3.05;78.17
62978;BME280;49073;42.352;23.808;2023-03-18T04:34:36;95041.91;;;-3.08;78.11
62978;BME280;49073;42.352;23.808;2023-03-18T04:37:37;95041.16;;;-3.03;78.85
62978;BME280;49073;42.352;23.808;2023-03-18T04:40:40;95046.09;;;-3.12;77.90
62978;BME280;49073;42.352;23.808;2023-03-18T04:43:42;95049.22;;;-3.04;78.38
62978;BME280;49073;42.352;23.808;2023-03-18T04:46:43;95047.59;;;-3.26;79.32
62978;BME280;49073;42.352;23.808;2023-03-18T04:49:44;95047.63;;;-3.16;80.17
62978;BME280;49073;42.352;23.808;2023-03-18T04:52:45;95054.97;;;-3.02;79.55
62978;BME280;49073;42.352;23.808;2023-03-18T04:55:47;95057.56;;;-3.02;79.66
62978;BME280;49073;42.352;23.808;2023-03-18T04:58:48;95054.50;;;-2.94;79.81
62978;BME280;49073;42.352;23.808;2023-03-18T05:01:49;95057.63;;;-2.87;80.18
62978;BME280;49073;42.352;23.808;2023-03-18T05:04:49;95061.56;;;-2.74;80.11
62978;BME280;49073;42.352;23.808;2023-03-18T05:07:50;95059.50;;;-2.56;79.39
62978;BME280;49073;42.352;23.808;2023-03-18T05:10:51;95062.13;;;-2.36;79.14
62978;BME280;49073;42.352;23.808;2023-03-18T05:13:52;95060.03;;;-2.44;79.57
62978;BME280;49073;42.352;23.808;2023-03-18T05:16:53;95065.00;;;-2.32;81.18
62978;BME280;49073;42.352;23.808;2023-03-18T05:19:55;95057.41;;;-2.18;82.10
62978;BME280;49073;42.352;23.808;2023-03-18T05:22:56;95064.94;;;-1.85;81.83
62978;BME280;49073;42.352;23.808;2023-03-18T05:25:57;95059.19;;;-1.72;81.83
62978;BME280;49073;42.352;23.808;2023-03-18T05:28:58;95059.75;;;-1.96;82.63
62978;BME280;49073;42.352;23.808;2023-03-18T05:31:58;95058.44;;;-1.93;83.35
62978;BME280;49073;42.352;23.808;2023-03-18T05:34:59;95058.97;;;-1.86;83.07
62978;BME280;49073;42.352;23.808;2023-03-18T05:38:00;95063.88;;;-1.64;83.19
62978;BME280;49073;42.352;23.808;2023-03-18T05:41:00;95060.41;;;-1.38;83.40
62978;BME280;49073;42.352;23.808;2023-03-18T05:44:01;95067.94;;;-1.26;83.82
62978;BME280;49073;42.352;23.808;2023-03-18T05:47:02;95063.72;;;-1.17;84.19
62978;BME280;49073;42.352;23.808;2023-03-18T05:50:03;95064.75;;;-1.13;85.67
62978;BME280;49073;42.352;23.808;2023-03-18T05:53:04;95054.00;;;-1.06;85.75
62978;BME280;49073;42.352;23.808;2023-03-18T05:56:06;95052.81;;;-0.79;85.04
62978;BME280;49073;42.352;23.808;2023-03-18T05:59:07;95054.31;;;-0.68;84.58
62978;BME280;49073;42.352;23.808;2023-03-18T06:02:07;95063.44;;;-0.65;85.20
62978;BME280;49073;42.352;23.808;2023-03-18T06:05:08;95053.22;;;-0.62;85.97
62978;BME280;49073;42.352;23.808;2023-03-18T06:08:10;95057.03;;;-0.43;85.87
62978;BME280;49073;42.352;23.808;2023-03-18T06:11:10;95051.72;;;-0.33;85.53
62978;BME280;49073;42.352;23.808;2023-03-18T06:14:11;95050.69;;;-0.37;84.99
62978;BME280;49073;42.352;23.808;2023-03-18T06:17:12;95049.31;;;-0.30;85.27
62978;BME280;49073;42.352;23.808;2023-03-18T06:20:14;95058.22;;;-0.31;85.21
62978;BME280;49073;42.352;23.808;2023-03-18T06:23:15;95056.78;;;-0.12;85.39
62978;BME280;49073;42.352;23.808;2023-03-18T06:26:15;95059.72;;;-0.19;85.97
62978;BME280;49073;42.352;23.808;2023-03-18T06:29:16;95063.06;;;-0.13;85.63
62978;BME280;49073;42.352;23.808;2023-03-18T06:32:17;95056.19;;;-0.04;84.85
62978;BME280;49073;42.352;23.808;2023-03-18T06:35:18;95061.34;;;0.06;84.76
62978;BME280;49073;42.352;23.808;2023-03-18T06:38:19;95059.31;;;0.27;84.47
62978;BME280;49073;42.352;23.808;2023-03-18T06:41:19;95052.88;;;0.44;84.78
62978;BME280;49073;42.352;23.808;2023-03-18T06:44:21;95052.56;;;0.70;83.78
62978;BME280;49073;42.352;23.808;2023-03-18T06:47:22;95049.25;;;0.83;82.09
62978;BME280;49073;42.352;23.808;2023-03-18T06:50:22;95055.94;;;0.76;81.83
62978;BME280;49073;42.352;23.808;2023-03-18T06:53:23;95044.25;;;0.38;81.09
62978;BME280;49073;42.352;23.808;2023-03-18T06:56:24;95044.66;;;0.51;81.59
62978;BME280;49073;42.352;23.808;2023-03-18T06:59:25;95047.25;;;0.75;82.32
62978;BME280;49073;42.352;23.808;2023-03-18T07:02:26;95056.22;;;0.93;82.48
62978;BME280;49073;42.352;23.808;2023-03-18T07:05:27;95042.28;;;0.98;81.47
62978;BME280;49073;42.352;23.808;2023-03-18T07:08:28;95045.97;;;1.16;81.65
62978;BME280;49073;42.352;23.808;2023-03-18T07:11:28;95047.59;;;1.31;80.49
62978;BME280;49073;42.352;23.808;2023-03-18T07:14:29;95048.75;;;1.44;79.98
62978;BME280;49073;42.352;23.808;2023-03-18T07:17:29;95047.81;;;1.54;80.24
62978;BME280;49073;42.352;23.808;2023-03-18T07:20:31;95049.31;;;1.60;79.70
62978;BME280;49073;42.352;23.808;2023-03-18T07:23:32;95039.75;;;1.83;78.74
62978;BME280;49073;42.352;23.808;2023-03-18T07:26:33;95043.69;;;2.00;77.92
62978;BME280;49073;42.352;23.808;2023-03-18T07:29:34;95042.91;;;2.13;77.98
62978;BME280;49073;42.352;23.808;2023-03-18T07:32:36;95043.91;;;2.17;76.66
62978;BME280;49073;42.352;23.808;2023-03-18T07:35:37;95041.00;;;2.33;76.42
62978;BME280;49073;42.352;23.808;2023-03-18T07:38:40;95045.69;;;2.36;76.03
62978;BME280;49073;42.352;23.808;2023-03-18T07:41:41;95049.31;;;2.40;76.00
62978;BME280;49073;42.352;23.808;2023-03-18T07:44:42;95042.38;;;2.58;75.06
62978;BME280;49073;42.352;23.808;2023-03-18T07:47:43;95041.78;;;2.75;74.25
62978;BME280;49073;42.352;23.808;2023-03-18T07:50:44;95044.84;;;2.69;73.43
62978;BME280;49073;42.352;23.808;2023-03-18T07:53:45;95045.13;;;2.81;73.02
62978;BME280;49073;42.352;23.808;2023-03-18T07:56:46;95041.59;;;2.86;73.67
62978;BME280;49073;42.352;23.808;2023-03-18T07:59:47;95050.06;;;2.97;74.03
62978;BME280;49073;42.352;23.808;2023-03-18T08:02:48;95045.44;;;3.16;74.39
62978;BME280;49073;42.352;23.808;2023-03-18T08:05:49;95040.38;;;3.20;73.01
62978;BME280;49073;42.352;23.808;2023-03-18T08:08:50;95036.44;;;3.31;71.01
62978;BME280;49073;42.352;23.808;2023-03-18T08:11:51;95040.50;;;3.38;69.93
62978;BME280;49073;42.352;23.808;2023-03-18T08:14:51;95038.72;;;3.47;66.78
62978;BME280;49073;42.352;23.808;2023-03-18T08:17:52;95038.19;;;3.59;66.92
62978;BME280;49073;42.352;23.808;2023-03-18T08:20:53;95042.88;;;3.62;65.32
62978;BME280;49073;42.352;23.808;2023-03-18T08:23:53;95048.56;;;3.78;66.47
62978;BME280;49073;42.352;23.808;2023-03-18T08:26:54;95057.31;;;3.64;64.66
62978;BME280;49073;42.352;23.808;2023-03-18T08:29:55;95041.03;;;3.62;64.30
62978;BME280;49073;42.352;23.808;2023-03-18T08:32:56;95039.81;;;3.69;64.58
62978;BME280;49073;42.352;23.808;2023-03-18T08:35:57;95041.56;;;3.73;63.19
62978;BME280;49073;42.352;23.808;2023-03-18T08:38:58;95037.66;;;3.71;63.51
62978;BME280;49073;42.352;23.808;2023-03-18T08:42:02;95041.56;;;3.73;62.66
62978;BME280;49073;42.352;23.808;2023-03-18T08:45:03;95034.38;;;3.65;62.00
62978;BME280;49073;42.352;23.808;2023-03-18T08:48:05;95034.56;;;3.69;63.00
62978;BME280;49073;42.352;23.808;2023-03-18T08:51:06;95024.00;;;3.91;62.00
62978;BME280;49073;42.352;23.808;2023-03-18T08:54:10;95028.16;;;4.56;59.71
62978;BME280;49073;42.352;23.808;2023-03-18T08:57:11;95033.09;;;4.89;59.37
62978;BME280;49073;42.352;23.808;2023-03-18T09:00:12;95038.91;;;5.17;58.88
62978;BME280;49073;42.352;23.808;2023-03-18T09:03:12;95036.09;;;5.58;56.73
62978;BME280;49073;42.352;23.808;2023-03-18T09:06:14;95035.03;;;5.67;54.77
62978;BME280;49073;42.352;23.808;2023-03-18T09:09:15;95037.38;;;5.69;52.40
62978;BME280;49073;42.352;23.808;2023-03-18T09:12:15;95033.00;;;5.64;52.17
62978;BME280;49073;42.352;23.808;2023-03-18T09:15:18;95032.69;;;5.83;51.51
62978;BME280;49073;42.352;23.808;2023-03-18T09:18:20;95021.28;;;6.18;52.28
62978;BME280;49073;42.352;23.808;2023-03-18T09:21:22;95027.03;;;6.59;51.13
62978;BME280;49073;42.352;23.808;2023-03-18T09:24:22;95023.72;;;6.32;49.56
62978;BME280;49073;42.352;23.808;2023-03-18T09:27:23;95020.53;;;6.57;49.33
62978;BME280;49073;42.352;23.808;2023-03-18T09:30:23;95020.06;;;6.84;49.79
62978;BME280;49073;42.352;23.808;2023-03-18T09:33:25;95011.91;;;7.20;48.37
62978;BME280;49073;42.352;23.808;2023-03-18T09:36:26;95014.50;;;7.50;49.41
62978;BME280;49073;42.352;23.808;2023-03-18T09:39:27;95002.31;;;8.04;48.46
62978;BME280;49073;42.352;23.808;2023-03-18T09:42:52;95003.06;;;8.50;46.47
62978;BME280;49073;42.352;23.808;2023-03-18T09:46:05;94997.31;;;8.61;43.90
62978;BME280;49073;42.352;23.808;2023-03-18T09:49:18;95004.44;;;7.77;43.45
62978;BME280;49073;42.352;23.808;2023-03-18T09:52:31;95002.53;;;7.65;43.62
62978;BME280;49073;42.352;23.808;2023-03-18T09:55:43;94986.97;;;7.76;42.62
62978;BME280;49073;42.352;23.808;2023-03-18T09:59:04;94986.72;;;8.02;45.26
62978;BME280;49073;42.352;23.808;2023-03-18T10:02:17;94991.69;;;8.75;43.11
62978;BME280;49073;42.352;23.808;2023-03-18T10:11:58;94989.16;;;8.07;42.68
62978;BME280;49073;42.352;23.808;2023-03-18T10:18:24;94997.88;;;7.19;45.88
62978;BME280;49073;42.352;23.808;2023-03-18T10:41:29;95010.28;;;7.06;43.56
62978;BME280;49073;42.352;23.808;2023-03-18T10:44:36;95006.13;;;6.96;43.66
62978;BME280;49073;42.352;23.808;2023-03-18T10:47:40;95012.72;;;6.90;45.17
62978;BME280;49073;42.352;23.808;2023-03-18T10:50:54;95024.00;;;6.78;45.70
62978;BME280;49073;42.352;23.808;2023-03-18T10:54:02;95014.03;;;6.75;49.46
62978;BME280;49073;42.352;23.808;2023-03-18T10:57:16;95014.69;;;6.72;49.04
62978;BME280;49073;42.352;23.808;2023-03-18T11:00:27;95008.56;;;6.80;46.88
62978;BME280;49073;42.352;23.808;2023-03-18T11:03:43;95007.66;;;6.76;46.64
62978;BME280;49073;42.352;23.808;2023-03-18T11:06:50;95012.72;;;6.90;48.67
62978;BME280;49073;42.352;23.808;2023-03-18T11:09:53;95014.50;;;7.07;47.20
62978;BME280;49073;42.352;23.808;2023-03-18T11:12:57;95010.94;;;7.24;47.06
62978;BME280;49073;42.352;23.808;2023-03-18T11:15:59;95013.03;;;7.40;46.62
62978;BME280;49073;42.352;23.808;2023-03-18T11:22:24;95015.91;;;7.68;46.59
62978;BME280;49073;42.352;23.808;2023-03-18T11:25:25;95011.78;;;7.59;46.82
62978;BME280;49073;42.352;23.808;2023-03-18T11:28:28;95015.53;;;7.36;46.22
62978;BME280;49073;42.352;23.808;2023-03-18T11:31:29;95017.47;;;7.27;47.38
62978;BME280;49073;42.352;23.808;2023-03-18T11:34:32;95021.72;;;7.19;46.14
62978;BME280;49073;42.352;23.808;2023-03-18T11:37:40;95019.41;;;7.18;47.00
62978;BME280;49073;42.352;23.808;2023-03-18T11:40:41;95018.03;;;6.90;47.82
62978;BME280;49073;42.352;23.808;2023-03-18T11:44:01;95027.41;;;7.09;47.87
62978;BME280;49073;42.352;23.808;2023-03-18T11:47:09;95018.59;;;6.96;49.69
62978;BME280;49073;42.352;23.808;2023-03-18T11:50:19;95023.13;;;6.65;50.72
62978;BME280;49073;42.352;23.808;2023-03-18T11:53:42;95029.44;;;6.43;51.60
62978;BME280;49073;42.352;23.808;2023-03-18T12:04:12;95034.59;;;6.48;52.44
62978;BME280;49073;42.352;23.808;2023-03-18T12:10:36;95035.75;;;6.21;52.19
62978;BME280;49073;42.352;23.808;2023-03-18T12:17:28;95056.13;;;6.20;55.10
62978;BME280;49073;42.352;23.808;2023-03-18T12:20:51;95061.25;;;6.17;54.99
62978;BME280;49073;42.352;23.808;2023-03-18T12:27:41;95059.56;;;5.24;65.15
62978;BME280;49073;42.352;23.808;2023-03-18T12:33:55;95090.44;;;4.57;71.34
62978;BME280;49073;42.352;23.808;2023-03-18T12:37:00;95099.13;;;4.57;71.51
62978;BME280;49073;42.352;23.808;2023-03-18T12:40:27;95090.91;;;4.59;73.67
62978;BME280;49073;42.352;23.808;2023-03-18T12:46:59;95078.38;;;4.64;75.23
62978;BME280;49073;42.352;23.808;2023-03-18T12:50:11;95069.88;;;4.76;74.21
62978;BME280;49073;42.352;23.808;2023-03-18T12:53:21;95061.56;;;5.09;71.85
62978;BME280;49073;42.352;23.808;2023-03-18T12:56:28;95063.91;;;5.20;70.99
62978;BME280;49073;42.352;23.808;2023-03-18T12:59:37;95062.97;;;5.16;70.46
62978;BME280;49073;42.352;23.808;2023-03-18T13:03:21;95064.16;;;5.01;74.50
62978;BME280;49073;42.352;23.808;2023-03-18T13:06:32;95057.50;;;5.03;73.64
62978;BME280;49073;42.352;23.808;2023-03-18T13:09:45;95065.66;;;5.42;72.59
62978;BME280;49073;42.352;23.808;2023-03-18T13:12:50;95076.53;;;5.49;74.99
62978;BME280;49073;42.352;23.808;2023-03-18T13:15:52;95078.13;;;5.68;72.16
62978;BME280;49073;42.352;23.808;2023-03-18T13:18:58;95067.97;;;6.05;70.35
62978;BME280;49073;42.352;23.808;2023-03-18T13:29:22;95066.66;;;6.38;66.20
62978;BME280;49073;42.352;23.808;2023-03-18T13:32:42;95056.44;;;6.66;65.68
62978;BME280;49073;42.352;23.808;2023-03-18T13:42:27;95046.22;;;6.47;67.01
62978;BME280;49073;42.352;23.808;2023-03-18T13:45:32;95051.94;;;6.67;63.12
62978;BME280;49073;42.352;23.808;2023-03-18T13:48:34;95058.41;;;6.87;61.33
62978;BME280;49073;42.352;23.808;2023-03-18T13:54:37;95053.88;;;6.88;61.16
62978;BME280;49073;42.352;23.808;2023-03-18T14:01:29;95059.22;;;6.79;62.33
62978;BME280;49073;42.352;23.808;2023-03-18T14:04:47;95042.84;;;6.77;60.58
62978;BME280;49073;42.352;23.808;2023-03-18T14:07:48;95034.06;;;6.55;56.57
62978;BME280;49073;42.352;23.808;2023-03-18T14:10:48;95029.59;;;6.38;55.70
62978;BME280;49073;42.352;23.808;2023-03-18T14:16:54;95019.00;;;6.77;54.25
62978;BME280;49073;42.352;23.808;2023-03-18T14:19:55;95019.31;;;7.05;53.62
62978;BME280;49073;42.352;23.808;2023-03-18T14:26:30;95020.06;;;6.54;55.61
62978;BME280;49073;42.352;23.808;2023-03-18T14:29:38;95021.81;;;6.50;55.10
62978;BME280;49073;42.352;23.808;2023-03-18T14:32:39;95009.75;;;6.62;54.77
62978;BME280;49073;42.352;23.808;2023-03-18T14:35:59;95013.81;;;6.89;53.51
62978;BME280;49073;42.352;23.808;2023-03-18T14:39:01;95013.50;;;6.91;51.92
62978;BME280;49073;42.352;23.808;2023-03-18T14:42:10;95017.78;;;6.74;52.37
62978;BME280;49073;42.352;23.808;2023-03-18T14:45:30;95015.19;;;6.65;52.08
62978;BME280;49073;42.352;23.808;2023-03-18T14:48:33;95013.31;;;6.66;52.17
62978;BME280;49073;42.352;23.808;2023-03-18T14:51:34;95024.53;;;6.63;50.54
62978;BME280;49073;42.352;23.808;2023-03-18T14:54:40;95025.00;;;6.65;50.87
62978;BME280;49073;42.352;23.808;2023-03-18T14:57:43;95022.44;;;6.77;49.51
62978;BME280;49073;42.352;23.808;2023-03-18T15:00:46;95016.44;;;6.59;50.58
62978;BME280;49073;42.352;23.808;2023-03-18T15:03:48;95015.06;;;6.62;52.41
62978;BME280;49073;42.352;23.808;2023-03-18T15:06:52;95015.69;;;6.59;51.07
62978;BME280;49073;42.352;23.808;2023-03-18T15:09:53;95019.16;;;6.50;51.53
62978;BME280;49073;42.352;23.808;2023-03-18T15:16:02;95027.13;;;6.33;50.92
62978;BME280;49073;42.352;23.808;2023-03-18T15:19:03;95025.75;;;6.26;51.26
62978;BME280;49073;42.352;23.808;2023-03-18T15:22:05;95017.06;;;6.17;52.06
62978;BME280;49073;42.352;23.808;2023-03-18T15:25:07;95024.22;;;6.25;51.82
62978;BME280;49073;42.352;23.808;2023-03-18T15:28:21;95021.75;;;6.11;51.98
62978;BME280;49073;42.352;23.808;2023-03-18T15:31:28;95019.56;;;6.14;50.87
62978;BME280;49073;42.352;23.808;2023-03-18T15:34:29;95033.13;;;6.12;50.09
62978;BME280;49073;42.352;23.808;2023-03-18T15:37:34;95036.72;;;5.99;50.90
62978;BME280;49073;42.352;23.808;2023-03-18T15:44:12;95026.13;;;6.07;51.38
62978;BME280;49073;42.352;23.808;2023-03-18T15:47:16;95030.50;;;5.94;51.90
62978;BME280;49073;42.352;23.808;2023-03-18T15:53:25;95029.41;;;5.87;52.18
62978;BME280;49073;42.352;23.808;2023-03-18T15:56:30;95040.75;;;5.87;51.50
62978;BME280;49073;42.352;23.808;2023-03-18T15:59:31;95039.97;;;5.78;51.44
62978;BME280;49073;42.352;23.808;2023-03-18T16:02:32;95046.38;;;5.77;51.54
62978;BME280;49073;42.352;23.808;2023-03-18T16:05:33;95050.09;;;5.76;51.61
62978;BME280;49073;42.352;23.808;2023-03-18T16:08:33;95048.06;;;5.73;51.76
62978;BME280;49073;42.352;23.808;2023-03-18T16:11:34;95049.03;;;5.68;52.25
62978;BME280;49073;42.352;23.808;2023-03-18T16:14:41;95051.19;;;5.83;52.99
62978;BME280;49073;42.352;23.808;2023-03-18T16:17:43;95056.31;;;5.89;53.76
62978;BME280;49073;42.352;23.808;2023-03-18T16:20:45;95052.28;;;5.74;54.56
62978;BME280;49073;42.352;23.808;2023-03-18T16:23:46;95056.16;;;5.59;55.97
62978;BME280;49073;42.352;23.808;2023-03-18T16:26:48;95063.94;;;5.29;56.69
62978;BME280;49073;42.352;23.808;2023-03-18T16:29:48;95070.25;;;5.01;57.70
62978;BME280;49073;42.352;23.808;2023-03-18T16:32:49;95066.16;;;4.77;58.41
62978;BME280;49073;42.352;23.808;2023-03-18T16:36:00;95079.72;;;4.53;59.20
62978;BME280;49073;42.352;23.808;2023-03-18T16:39:13;95076.03;;;4.31;60.06
62978;BME280;49073;42.352;23.808;2023-03-18T16:42:13;95078.69;;;4.08;60.68
62978;BME280;49073;42.352;23.808;2023-03-18T16:45:16;95084.69;;;4.00;60.65
62978;BME280;49073;42.352;23.808;2023-03-18T16:48:20;95083.88;;;3.91;60.90
62978;BME280;49073;42.352;23.808;2023-03-18T16:51:21;95082.22;;;3.58;61.87
62978;BME280;49073;42.352;23.808;2023-03-18T16:54:26;95083.97;;;3.63;61.56
62978;BME280;49073;42.352;23.808;2023-03-18T16:57:27;95085.06;;;3.48;60.92
62978;BME280;49073;42.352;23.808;2023-03-18T17:00:30;95090.06;;;3.35;61.17
62978;BME280;49073;42.352;23.808;2023-03-18T17:03:34;95090.31;;;3.25;61.90
62978;BME280;49073;42.352;23.808;2023-03-18T17:06:35;95095.41;;;3.08;62.83
62978;BME280;49073;42.352;23.808;2023-03-18T17:09:35;95101.53;;;2.89;62.74
62978;BME280;49073;42.352;23.808;2023-03-18T17:12:38;95099.50;;;2.72;63.61
62978;BME280;49073;42.352;23.808;2023-03-18T17:15:40;95096.84;;;2.58;64.00
62978;BME280;49073;42.352;23.808;2023-03-18T17:18:43;95100.13;;;2.36;65.17
62978;BME280;49073;42.352;23.808;2023-03-18T17:21:44;95108.38;;;2.15;65.24
62978;BME280;49073;42.352;23.808;2023-03-18T17:24:45;95103.78;;;2.07;66.67
62978;BME280;49073;42.352;23.808;2023-03-18T17:27:59;95113.81;;;2.18;67.06
62978;BME280;49073;42.352;23.808;2023-03-18T17:31:01;95117.19;;;2.38;66.74
62978;BME280;49073;42.352;23.808;2023-03-18T17:34:11;95124.59;;;2.36;65.30
62978;BME280;49073;42.352;23.808;2023-03-18T17:37:12;95112.91;;;2.09;67.12
62978;BME280;49073;42.352;23.808;2023-03-18T17:40:15;95117.34;;;1.95;66.54
62978;BME280;49073;42.352;23.808;2023-03-18T17:43:24;95129.59;;;1.85;67.71
62978;BME280;49073;42.352;23.808;2023-03-18T17:46:25;95125.16;;;1.81;68.30